Time;durP1;ratioP1;P1;durP2;ratioP2;P2;SDS_P1;SDS_P2;PMS_P1;PMS_P2;Temp;Humidity;BMP_temperature;BMP_pressure;BME280_temperature;BME280_humidity;BME280_pressure;Samples;Min_cycle;Max_cycle;Signal;HPM_P1;HPM_P2
2022/06/07 00:02:02;;;;;;;8.00;7.20;;;17.80;30.40;;;;;;4967583;28;20431;-54
2022/06/07 00:04:27;;;;;;;7.17;6.57;;;17.70;34.70;;;;;;4966402;28;20432;-49
2022/06/07 00:06:53;;;;;;;6.87;6.27;;;17.60;38.20;;;;;;4964051;28;20438;-54
2022/06/07 00:09:18;;;;;;;7.00;6.40;;;17.60;42.80;;;;;;4970623;28;20192;-50
2022/06/07 00:11:44;;;;;;;6.87;6.37;;;17.60;42.80;;;;;;4970353;28;20594;-55
2022/06/07 00:14:10;;;;;;;6.73;6.13;;;17.70;38.70;;;;;;4953459;28;20178;-50
2022/06/07 00:16:36;;;;;;;6.33;5.83;;;17.70;38.90;;;;;;4951448;29;20899;-54
2022/06/07 00:19:01;;;;;;;7.37;6.77;;;17.60;38.50;;;;;;4964461;28;20448;-53
2022/06/07 00:21:29;;;;;;;6.63;6.13;;;17.70;37.20;;;;;;4969757;28;20207;-53
2022/06/07 00:23:55;;;;;;;6.30;5.70;;;17.70;38.00;;;;;;4969404;28;20236;-53
2022/06/07 00:26:21;;;;;;;6.80;6.30;;;17.70;37.60;;;;;;4970106;28;20427;-53
2022/06/07 00:28:47;;;;;;;6.33;5.83;;;17.70;35.00;;;;;;4981811;28;20959;-50
2022/06/07 00:31:13;;;;;;;7.60;6.90;;;17.70;33.10;;;;;;4977067;28;20476;-54
2022/06/07 00:33:38;;;;;;;7.77;7.07;;;17.60;34.60;;;;;;4963991;28;20195;-52
2022/06/07 00:36:04;;;;;;;6.60;6.10;;;17.70;34.00;;;;;;4970747;28;20412;-53
2022/06/07 00:38:30;;;;;;;6.67;6.07;;;17.60;33.60;;;;;;4969221;28;20180;-51
2022/06/07 00:40:57;;;;;;;7.00;6.40;;;17.60;39.30;;;;;;4970628;28;20446;-48
2022/06/07 00:43:25;;;;;;;6.67;6.07;;;17.50;42.80;;;;;;4965509;28;20479;-54
2022/06/07 00:45:51;;;;;;;6.37;5.87;;;17.50;46.40;;;;;;4970707;28;20459;-50
2022/06/07 00:48:17;;;;;;;7.70;7.07;;;17.50;46.10;;;;;;4968777;28;20522;-52
2022/06/07 00:51:08;;;;;;;7.40;6.80;;;17.40;50.60;;;;;;4973066;28;20456;-53
2022/06/07 00:53:35;;;;;;;7.53;6.83;;;17.30;56.80;;;;;;4962796;28;20502;-54
2022/06/07 00:56:01;;;;;;;9.50;6.63;;;17.20;62.00;;;;;;4975925;28;20482;-55
2022/06/07 00:58:29;;;;;;;7.80;7.10;;;17.20;64.60;;;;;;4968978;28;20448;-52
2022/06/07 01:00:55;;;;;;;7.90;7.10;;;17.10;69.30;;;;;;4979401;28;20425;-55
2022/06/07 01:03:21;;;;;;;7.83;7.03;;;17.10;73.00;;;;;;4968495;28;20502;-50
2022/06/07 01:05:48;;;;;;;8.03;7.23;;;17.00;80.80;;;;;;4965881;28;20483;-51
2022/06/07 01:10:58;;;;;;;8.17;7.33;;;16.90;93.50;;;;;;4964845;28;20511;-52
2022/06/07 01:13:28;;;;;;;7.90;7.20;;;16.80;99.60;;;;;;4968768;28;20435;-56
2022/06/07 01:16:02;;;;;;;8.70;8.00;;;16.80;99.90;;;;;;4978468;28;20184;-53
2022/06/07 01:18:28;;;;;;;8.33;7.63;;;16.80;99.90;;;;;;4972196;28;20523;-53
2022/06/07 01:21:29;;;;;;;8.10;7.40;;;16.70;99.90;;;;;;4960754;28;20823;-53
2022/06/07 01:23:54;;;;;;;7.87;7.27;;;16.70;99.90;;;;;;4973620;28;20441;-50
2022/06/07 01:26:20;;;;;;;9.10;8.30;;;16.80;99.90;;;;;;4971637;28;20452;-54
2022/06/07 01:28:45;;;;;;;8.50;7.80;;;16.80;99.90;;;;;;4973614;28;20705;-49
2022/06/07 01:31:11;;;;;;;9.57;7.90;;;16.80;99.90;;;;;;4970546;28;20252;-52
2022/06/07 01:33:37;;;;;;;7.73;7.03;;;16.80;99.90;;;;;;4973329;28;20180;-52
2022/06/07 01:36:06;;;;;;;7.90;7.30;;;16.80;99.90;;;;;;4969516;28;20210;-50
2022/06/07 01:38:34;;;;;;;8.07;7.37;;;16.80;99.90;;;;;;4972849;28;20465;-53
2022/06/07 01:43:44;;;;;;;8.67;7.80;;;16.90;99.90;;;;;;4973238;28;20467;-53
2022/06/07 01:46:09;;;;;;;8.50;7.80;;;16.90;99.90;;;;;;4962824;28;20439;-55
2022/06/07 01:48:35;;;;;;;10.23;8.17;;;16.90;99.90;;;;;;4967511;28;20225;-55
2022/06/07 01:51:05;;;;;;;8.30;7.60;;;16.90;99.90;;;;;;4966849;28;20214;-54
2022/06/07 01:53:32;;;;;;;9.10;8.40;;;17.00;99.90;;;;;;4968177;28;20194;-54
2022/06/07 01:56:06;;;;;;;8.30;7.57;;;16.90;99.90;;;;;;4969815;28;20509;-52
2022/06/07 01:58:32;;;;;;;9.50;8.60;;;16.90;99.90;;;;;;4980978;28;20465;-50
2022/06/07 02:00:57;;;;;;;8.10;7.30;;;17.00;99.90;;;;;;4970979;28;20456;-53
2022/06/07 02:03:23;;;;;;;8.00;7.40;;;17.00;99.90;;;;;;4985031;28;20202;-51
2022/06/07 02:06:01;;;;;;;7.60;7.00;;;17.00;99.90;;;;;;4969592;28;20326;-56
2022/06/07 02:08:27;;;;;;;8.53;7.83;;;17.00;99.90;;;;;;4972182;28;20496;-52
2022/06/07 02:10:54;;;;;;;8.40;7.60;;;17.00;99.90;;;;;;4969757;28;20471;-50
2022/06/07 02:13:21;;;;;;;8.17;7.47;;;17.00;99.90;;;;;;4971040;28;20246;-54
2022/06/07 02:15:47;;;;;;;8.30;7.60;;;17.00;99.90;;;;;;4970409;28;20443;-55
2022/06/07 02:18:14;;;;;;;8.83;8.13;;;17.00;99.90;;;;;;4970016;28;20462;-55
2022/06/07 02:20:40;;;;;;;7.50;6.90;;;17.00;99.90;;;;;;4970168;28;20449;-53
2022/06/07 02:23:08;;;;;;;7.70;7.10;;;16.90;99.90;;;;;;4972458;28;21082;-50
2022/06/07 02:25:41;;;;;;;8.20;7.50;;;16.90;99.90;;;;;;4967627;28;20756;-52
2022/06/07 02:28:11;;;;;;;8.27;7.53;;;16.90;99.90;;;;;;4983890;28;20441;-50
2022/06/07 02:30:39;;;;;;;9.20;8.40;;;16.80;99.90;;;;;;4970057;28;20509;-53
2022/06/07 02:33:05;;;;;;;9.10;8.20;;;16.70;99.90;;;;;;4969556;28;21002;-56
2022/06/07 02:35:31;;;;;;;8.83;8.03;;;16.70;99.90;;;;;;4971249;28;20449;-53
2022/06/07 02:37:56;;;;;;;9.10;8.30;;;16.60;99.90;;;;;;4962293;28;20774;-52
2022/06/07 02:40:22;;;;;;;9.00;8.30;;;16.50;99.90;;;;;;4970582;28;20198;-51
2022/06/07 02:42:47;;;;;;;9.33;8.43;;;16.60;99.90;;;;;;4969731;28;20198;-52
2022/06/07 02:45:13;;;;;;;8.80;7.90;;;16.50;99.90;;;;;;4972529;28;20202;-55
2022/06/07 02:47:39;;;;;;;8.97;8.20;;;16.50;99.90;;;;;;4971221;28;20335;-54
2022/06/07 02:50:05;;;;;;;8.70;7.97;;;16.40;99.90;;;;;;4971524;28;20211;-52
2022/06/07 02:52:31;;;;;;;8.53;7.83;;;16.40;99.90;;;;;;4969890;28;20201;-52
2022/06/07 02:54:56;;;;;;;8.80;7.93;;;16.50;99.90;;;;;;4970451;28;20437;-51
2022/06/07 02:57:22;;;;;;;8.13;7.53;;;16.50;99.90;;;;;;4973460;28;20241;-55
2022/06/07 02:59:47;;;;;;;8.50;7.80;;;16.50;99.90;;;;;;4976198;28;20184;-51
2022/06/07 03:02:13;;;;;;;8.20;7.50;;;16.50;99.90;;;;;;4968533;28;20237;-50
2022/06/07 03:04:39;;;;;;;9.77;8.97;;;16.70;99.90;;;;;;4969230;28;20232;-50
2022/06/07 03:07:05;;;;;;;8.93;8.03;;;16.70;99.90;;;;;;4970845;28;20434;-48
2022/06/07 03:09:31;;;;;;;8.77;7.87;;;16.70;99.90;;;;;;4970114;28;20235;-51
2022/06/07 03:11:57;;;;;;;8.17;7.43;;;16.80;99.90;;;;;;4967659;28;20188;-53
2022/06/07 03:14:22;;;;;;;8.93;8.20;;;16.80;99.90;;;;;;4983431;28;20442;-53
2022/06/07 03:16:48;;;;;;;8.50;7.80;;;16.80;99.90;;;;;;4970456;28;20195;-51
2022/06/07 03:19:13;;;;;;;8.97;8.17;;;16.80;99.90;;;;;;4967274;28;20197;-53
2022/06/07 03:21:40;;;;;;;8.80;8.00;;;16.80;99.90;;;;;;4971525;28;20535;-53
2022/06/07 03:24:07;;;;;;;8.33;7.67;;;16.90;99.90;;;;;;4970480;28;20676;-54
2022/06/07 03:26:32;;;;;;;8.27;7.47;;;16.90;99.90;;;;;;4979567;28;20453;-52
2022/06/07 03:28:58;;;;;;;8.50;7.30;;;16.90;99.60;;;;;;4970698;28;20446;-52
2022/06/07 03:31:24;;;;;;;8.63;7.83;;;16.90;98.80;;;;;;4971444;28;20210;-53
2022/06/07 03:33:50;;;;;;;9.00;8.10;;;17.00;99.00;;;;;;4970222;28;20693;-54
2022/06/07 03:36:22;;;;;;;9.90;7.90;;;17.00;96.20;;;;;;4971074;28;20280;-54
2022/06/07 03:38:48;;;;;;;8.27;7.47;;;17.00;96.60;;;;;;4966469;28;20201;-53
2022/06/07 03:41:17;;;;;;;8.10;7.40;;;17.10;95.30;;;;;;4969958;28;20447;-52
2022/06/07 03:43:42;;;;;;;8.33;7.70;;;17.10;91.10;;;;;;4969805;28;20542;-55
2022/06/07 03:46:14;;;;;;;8.20;7.50;;;17.20;87.30;;;;;;4969828;28;20586;-53
2022/06/07 03:48:41;;;;;;;8.17;7.40;;;17.20;84.10;;;;;;4969555;28;20592;-53
2022/06/07 03:51:08;;;;;;;8.00;7.40;;;17.20;80.00;;;;;;4963828;28;20482;-51
2022/06/07 03:53:34;;;;;;;7.97;7.37;;;17.20;70.00;;;;;;4968763;28;20586;-52
2022/06/07 03:56:00;;;;;;;8.17;7.47;;;17.30;67.50;;;;;;4972486;28;20509;-49
2022/06/07 03:58:25;;;;;;;8.43;7.73;;;17.30;67.60;;;;;;4967284;28;20191;-53
2022/06/07 04:00:54;;;;;;;7.90;7.30;;;17.30;56.20;;;;;;4967658;28;20187;-53
2022/06/07 04:03:20;;;;;;;7.00;6.43;;;17.30;54.80;;;;;;4977395;28;20200;-53
2022/06/07 04:05:46;;;;;;;8.00;7.30;;;17.30;48.50;;;;;;4982253;28;20477;-54
2022/06/07 04:08:12;;;;;;;7.60;6.90;;;17.40;45.00;;;;;;4970829;28;20183;-55
2022/06/07 04:10:59;;;;;;;7.77;7.17;;;17.30;41.20;;;;;;4969542;28;20220;-54
2022/06/07 04:13:27;;;;;;;7.63;6.97;;;17.40;87.00;;;;;;4969591;28;20224;-49
2022/06/07 04:15:53;;;;;;;7.47;6.77;;;17.40;99.90;;;;;;4969065;28;20431;-55
2022/06/07 04:18:20;;;;;;;8.50;7.80;;;17.40;99.90;;;;;;4952226;28;20561;-54
2022/06/07 04:20:46;;;;;;;7.70;7.10;;;17.40;99.90;;;;;;4943578;28;20447;-53
2022/06/07 04:23:20;;;;;;;8.03;7.33;;;17.40;99.90;;;;;;4945891;28;20826;-54
2022/06/07 04:25:45;;;;;;;8.57;7.87;;;17.40;99.90;;;;;;4960089;28;20460;-51
2022/06/07 04:28:12;;;;;;;8.67;7.80;;;17.50;99.90;;;;;;4959248;28;20555;-50
2022/06/07 04:30:42;;;;;;;7.13;6.47;;;17.60;99.90;;;;;;4944817;28;20209;-51
2022/06/07 04:33:08;;;;;;;8.17;7.47;;;17.60;99.90;;;;;;4947344;28;20452;-54
2022/06/07 04:35:33;;;;;;;7.47;6.77;;;17.60;99.90;;;;;;4943651;28;20445;-52
2022/06/07 04:37:59;;;;;;;7.17;6.57;;;17.70;99.90;;;;;;4948566;28;20200;-56
2022/06/07 04:40:25;;;;;;;8.13;7.37;;;17.80;99.90;;;;;;4943212;28;20203;-53
2022/06/07 04:42:50;;;;;;;7.73;7.13;;;17.80;99.90;;;;;;4947311;28;20197;-55
2022/06/07 04:45:17;;;;;;;7.57;6.97;;;17.90;99.90;;;;;;4949352;28;20200;-54
2022/06/07 04:47:44;;;;;;;7.57;7.00;;;17.90;99.90;;;;;;4978363;28;21131;-54
2022/06/07 04:50:13;;;;;;;8.27;7.57;;;18.00;99.90;;;;;;4946498;28;20474;-52
2022/06/07 04:52:39;;;;;;;7.80;7.07;;;18.00;99.90;;;;;;4954144;28;20449;-55
2022/06/07 04:55:05;;;;;;;8.00;7.40;;;18.10;99.90;;;;;;4951906;28;20435;-52
2022/06/07 04:57:31;;;;;;;7.50;6.90;;;18.20;99.90;;;;;;4954414;28;20704;-54
2022/06/07 04:59:56;;;;;;;7.60;7.00;;;18.20;99.90;;;;;;4964268;28;21550;-53
2022/06/07 05:02:22;;;;;;;7.60;6.97;;;18.20;99.90;;;;;;4949668;28;20189;-49
2022/06/07 05:04:48;;;;;;;8.33;7.53;;;18.20;99.90;;;;;;4959291;28;21187;-50
2022/06/07 05:07:14;;;;;;;7.13;6.43;;;18.30;99.90;;;;;;4953062;28;20193;-54
2022/06/07 05:09:40;;;;;;;8.77;7.40;;;18.40;99.90;;;;;;4956427;28;20459;-53
2022/06/07 05:12:08;;;;;;;7.80;7.20;;;18.40;99.90;;;;;;4958312;28;20443;-54
2022/06/07 05:14:34;;;;;;;8.33;7.63;;;18.40;99.90;;;;;;4955702;28;20421;-54
2022/06/07 05:17:00;;;;;;;8.80;7.20;;;18.50;99.90;;;;;;4969566;28;20456;-50
2022/06/07 05:19:29;;;;;;;7.63;7.03;;;18.60;99.90;;;;;;4967843;28;20478;-54
2022/06/07 05:21:55;;;;;;;7.00;6.40;;;18.60;99.90;;;;;;4975286;28;20189;-55
2022/06/07 05:24:21;;;;;;;7.30;6.70;;;18.70;99.90;;;;;;4973525;28;20432;-50
2022/06/07 05:26:52;;;;;;;7.43;6.77;;;18.70;99.90;;;;;;4971099;28;20495;-53
2022/06/07 05:29:27;;;;;;;7.40;6.80;;;18.90;99.90;;;;;;4973835;28;20244;-49
2022/06/07 05:31:52;;;;;;;6.70;6.20;;;19.00;99.90;;;;;;4972508;28;20471;-54
2022/06/07 05:34:18;;;;;;;8.60;7.80;;;18.80;99.90;;;;;;4972839;28;20785;-55
2022/06/07 05:36:44;;;;;;;7.80;7.00;;;18.80;99.90;;;;;;4972710;28;21100;-52
2022/06/07 05:39:23;;;;;;;7.93;7.30;;;18.90;99.90;;;;;;4973693;28;20185;-56
2022/06/07 05:41:49;;;;;;;7.63;7.03;;;19.00;99.90;;;;;;4972021;28;20440;-52
2022/06/07 05:44:15;;;;;;;8.13;7.43;;;19.00;99.90;;;;;;4975127;28;20517;-52
2022/06/07 05:46:42;;;;;;;7.77;7.17;;;19.20;99.90;;;;;;4973783;28;20440;-56
2022/06/07 05:49:09;;;;;;;9.20;7.30;;;19.30;99.90;;;;;;4981002;28;20444;-51
2022/06/07 05:51:35;;;;;;;7.07;6.57;;;19.40;99.90;;;;;;4967742;28;20472;-54
2022/06/07 05:54:01;;;;;;;8.17;7.47;;;19.50;99.90;;;;;;4972882;28;20471;-53
2022/06/07 05:56:27;;;;;;;8.57;7.67;;;19.60;99.90;;;;;;4972850;28;20476;-52
2022/06/07 05:58:52;;;;;;;7.10;6.57;;;19.70;99.90;;;;;;4974001;28;20192;-51
2022/06/07 06:01:19;;;;;;;7.40;6.80;;;19.80;99.90;;;;;;4969123;28;20504;-51
2022/06/07 06:03:45;;;;;;;7.67;6.50;;;19.80;99.90;;;;;;4973628;28;20538;-53
2022/06/07 06:06:12;;;;;;;6.70;6.20;;;19.80;99.90;;;;;;4973945;28;20440;-49
2022/06/07 06:11:26;;;;;;;7.30;6.70;;;19.80;99.90;;;;;;4970689;28;21061;-55
2022/06/07 06:13:51;;;;;;;8.07;7.10;;;19.70;99.90;;;;;;4974358;28;20446;-52
2022/06/07 06:16:19;;;;;;;7.80;7.20;;;19.80;99.90;;;;;;4973677;28;20420;-54
2022/06/07 06:18:50;;;;;;;7.47;6.87;;;19.80;99.90;;;;;;4963885;28;20328;-52
2022/06/07 06:21:17;;;;;;;8.27;7.57;;;19.80;99.90;;;;;;4955343;28;20417;-54
2022/06/07 06:23:43;;;;;;;8.00;7.37;;;19.60;99.90;;;;;;4953913;28;20436;-52
2022/06/07 06:26:11;;;;;;;7.50;7.00;;;19.50;99.90;;;;;;4963462;28;20586;-50
2022/06/07 06:28:37;;;;;;;7.90;7.10;;;19.50;99.90;;;;;;4993680;28;20423;-51
2022/06/07 06:31:05;;;;;;;7.30;6.70;;;19.40;99.90;;;;;;4981931;28;20550;-55
2022/06/07 06:33:35;;;;;;;9.03;7.77;;;19.40;99.90;;;;;;4955968;28;20915;-55
2022/06/07 06:36:00;;;;;;;8.03;7.33;;;19.30;99.90;;;;;;4954381;28;20573;-49
2022/06/07 06:38:26;;;;;;;7.80;7.23;;;19.30;99.90;;;;;;4954788;29;20488;-48
2022/06/07 06:40:51;;;;;;;8.43;7.77;;;19.30;99.90;;;;;;4968763;28;20196;-51
2022/06/07 06:43:18;;;;;;;8.93;8.07;;;19.40;99.90;;;;;;4961839;28;20220;-52
2022/06/07 06:45:43;;;;;;;9.53;8.63;;;19.50;99.90;;;;;;4972460;28;20321;-56
2022/06/07 06:48:10;;;;;;;8.40;7.70;;;19.40;99.90;;;;;;4969436;28;21257;-52
2022/06/07 06:50:36;;;;;;;8.17;7.53;;;19.50;99.90;;;;;;4972119;28;20467;-53
2022/06/07 06:53:02;;;;;;;8.10;7.50;;;19.40;99.90;;;;;;4971551;28;20452;-52
2022/06/07 06:55:28;;;;;;;7.77;7.17;;;19.60;99.90;;;;;;4977740;28;20441;-55
2022/06/07 06:57:54;;;;;;;7.80;7.10;;;19.70;99.90;;;;;;4976560;28;20228;-52
2022/06/07 07:00:20;;;;;;;9.13;8.23;;;19.80;99.90;;;;;;4971618;28;20202;-53
2022/06/07 07:02:46;;;;;;;8.97;7.97;;;19.70;99.90;;;;;;4969524;28;20428;-52
2022/06/07 07:05:14;;;;;;;8.07;7.47;;;19.80;99.90;;;;;;4969561;28;20213;-55
2022/06/07 07:07:40;;;;;;;8.10;7.30;;;19.90;99.90;;;;;;4971856;28;20455;-52
2022/06/07 07:10:07;;;;;;;8.93;8.17;;;20.00;99.90;;;;;;4960123;28;20963;-52
2022/06/07 07:12:34;;;;;;;7.80;7.20;;;20.20;99.90;;;;;;4971482;28;20789;-48
2022/06/07 07:15:00;;;;;;;8.07;7.47;;;20.30;99.90;;;;;;4970640;28;20433;-50
2022/06/07 07:17:26;;;;;;;8.30;7.70;;;20.50;99.90;;;;;;4970698;28;20474;-52
2022/06/07 07:19:52;;;;;;;8.40;7.80;;;20.60;99.90;;;;;;4971326;28;20422;-53
2022/06/07 07:22:18;;;;;;;7.83;7.23;;;20.60;99.90;;;;;;4984514;28;20529;-50
2022/06/07 07:24:44;;;;;;;7.80;7.10;;;20.80;99.90;;;;;;4973825;28;20193;-48
2022/06/07 07:27:10;;;;;;;8.60;7.90;;;20.80;99.90;;;;;;4963423;28;20430;-49
2022/06/07 07:29:37;;;;;;;7.10;6.40;;;21.10;99.90;;;;;;4957442;28;20435;-55
2022/06/07 07:32:03;;;;;;;8.87;8.07;;;21.20;99.90;;;;;;4964202;28;20215;-50
2022/06/07 07:34:29;;;;;;;8.33;7.63;;;21.20;99.90;;;;;;4976515;28;20792;-53
2022/06/07 07:36:55;;;;;;;7.77;7.17;;;21.40;99.90;;;;;;4964390;28;20422;-51
2022/06/07 07:39:21;;;;;;;7.60;7.10;;;21.50;99.90;;;;;;4968722;28;20247;-54
2022/06/07 07:41:48;;;;;;;7.77;7.23;;;21.70;99.90;;;;;;4958868;28;20203;-51
2022/06/07 07:44:16;;;;;;;8.70;7.97;;;21.90;99.90;;;;;;4971190;28;20474;-51
2022/06/07 07:46:43;;;;;;;7.13;6.63;;;21.80;99.90;;;;;;4970585;28;20957;-52
2022/06/07 07:49:12;;;;;;;8.43;7.63;;;22.00;99.90;;;;;;4971200;28;20479;-48
2022/06/07 07:51:41;;;;;;;8.30;7.70;;;22.10;99.90;;;;;;4970517;28;20879;-55
2022/06/07 07:54:08;;;;;;;8.37;7.67;;;22.30;99.90;;;;;;4982114;28;20463;-48
2022/06/07 07:56:35;;;;;;;7.67;7.03;;;22.50;99.90;;;;;;4969794;28;20475;-51
2022/06/07 07:59:01;;;;;;;7.23;6.63;;;22.50;99.90;;;;;;4970760;28;20452;-50
2022/06/07 08:01:28;;;;;;;7.93;7.33;;;22.60;99.90;;;;;;4967262;28;20482;-48
2022/06/07 08:03:57;;;;;;;7.60;6.90;;;22.60;99.90;;;;;;4970768;28;20766;-52
2022/06/07 08:06:24;;;;;;;8.27;7.67;;;22.90;99.90;;;;;;4970229;28;20998;-53
2022/06/07 08:08:53;;;;;;;7.80;7.20;;;23.10;99.90;;;;;;4970805;28;20468;-52
2022/06/07 08:11:21;;;;;;;8.00;7.40;;;23.10;99.60;;;;;;4966950;28;20482;-49
2022/06/07 08:13:47;;;;;;;8.63;7.93;;;23.10;99.80;;;;;;4964257;28;20416;-49
2022/06/07 08:16:14;;;;;;;7.70;7.10;;;23.20;99.70;;;;;;4969941;28;20479;-50
2022/06/07 08:18:41;;;;;;;7.97;7.27;;;23.30;99.10;;;;;;4969422;28;20435;-53
2022/06/07 08:21:10;;;;;;;7.30;6.80;;;23.30;99.70;;;;;;4970350;28;20446;-55
2022/06/07 08:23:37;;;;;;;8.13;7.53;;;23.60;98.40;;;;;;4971227;28;20458;-54
2022/06/07 08:26:04;;;;;;;7.70;7.20;;;23.50;97.10;;;;;;4970033;28;20456;-52
2022/06/07 08:28:31;;;;;;;8.00;7.40;;;23.60;96.70;;;;;;4977539;28;20499;-54
2022/06/07 08:30:58;;;;;;;8.17;7.57;;;23.90;96.40;;;;;;4969988;28;20554;-49
2022/06/07 08:39:01;;;;;;;8.60;8.00;;;24.50;95.20;;;;;;4961171;28;20481;-50
2022/06/07 08:41:40;;;;;;;9.33;8.70;;;24.70;93.80;;;;;;4957884;28;20837;-53
2022/06/07 08:44:11;;;;;;;8.37;7.77;;;24.70;92.90;;;;;;4968919;28;20455;-53
2022/06/07 08:46:38;;;;;;;9.47;7.53;;;24.80;90.90;;;;;;4970548;28;20454;-53
2022/06/07 08:49:06;;;;;;;8.53;7.83;;;24.60;90.40;;;;;;4970584;28;20520;-54
2022/06/07 08:51:45;;;;;;;7.97;7.43;;;24.60;91.60;;;;;;4969205;28;20470;-53
2022/06/07 08:54:25;;;;;;;7.03;6.53;;;24.70;91.70;;;;;;4969266;28;20767;-53
2022/06/07 08:56:52;;;;;;;7.03;6.53;;;24.80;88.40;;;;;;4965959;28;20470;-55
2022/06/07 08:59:20;;;;;;;7.27;6.67;;;24.80;87.00;;;;;;4971198;28;20417;-49
2022/06/07 09:02:00;;;;;;;7.27;6.77;;;24.90;86.70;;;;;;4970963;28;20447;-55
2022/06/07 09:04:31;;;;;;;6.63;6.23;;;24.60;82.90;;;;;;4956811;28;21284;-49
2022/06/07 09:07:04;;;;;;;6.60;6.20;;;24.70;82.90;;;;;;4970017;28;20510;-49
2022/06/07 09:12:24;;;;;;;6.50;6.00;;;24.60;82.70;;;;;;4970424;28;20930;-52
2022/06/07 09:15:11;;;;;;;6.73;6.23;;;24.60;83.40;;;;;;4960545;28;20473;-53
2022/06/07 09:17:38;;;;;;;6.50;6.10;;;24.60;82.90;;;;;;4970001;28;21051;-51
2022/06/07 09:20:14;;;;;;;7.47;6.97;;;24.40;84.30;;;;;;4969153;28;20791;-47
2022/06/07 09:22:50;;;;;;;7.73;7.13;;;24.20;86.70;;;;;;4957835;28;20463;-52
2022/06/07 09:25:19;;;;;;;7.80;7.20;;;24.00;87.90;;;;;;4969176;28;20832;-51
2022/06/07 09:27:45;;;;;;;7.87;7.37;;;23.70;89.50;;;;;;4971667;28;20907;-53
2022/06/07 09:30:17;;;;;;;8.77;8.10;;;23.50;90.30;;;;;;4970265;28;20547;-52
2022/06/07 09:32:45;;;;;;;8.27;7.67;;;23.30;91.60;;;;;;4960924;28;20199;-51
2022/06/07 09:35:40;;;;;;;7.70;7.10;;;23.10;92.40;;;;;;4972150;28;20415;-54
2022/06/07 09:38:28;;;;;;;6.93;6.47;;;23.00;93.30;;;;;;4973759;28;20420;-54
2022/06/07 09:40:56;;;;;;;6.70;6.30;;;22.90;90.80;;;;;;4970266;28;20448;-51
2022/06/07 09:43:39;;;;;;;6.97;6.57;;;22.70;92.20;;;;;;4966551;28;20439;-53
2022/06/07 09:46:11;;;;;;;6.80;6.40;;;22.60;92.50;;;;;;4962758;28;20480;-50
2022/06/07 09:48:44;;;;;;;6.33;5.93;;;22.50;93.70;;;;;;4968909;28;20435;-52
2022/06/07 09:51:22;;;;;;;6.80;6.20;;;22.40;93.50;;;;;;4973294;28;20464;-50
2022/06/07 09:53:59;;;;;;;5.90;5.30;;;22.50;93.20;;;;;;4976817;28;21319;-50
2022/06/07 09:56:46;;;;;;;6.70;6.20;;;22.60;91.50;;;;;;4977992;28;20836;-51
2022/06/07 09:59:42;;;;;;;6.33;5.90;;;22.60;91.60;;;;;;4965168;28;20507;-54
2022/06/07 10:02:22;;;;;;;6.50;5.90;;;22.70;91.50;;;;;;4971869;28;20428;-55
2022/06/07 10:04:51;;;;;;;6.13;5.67;;;22.80;91.90;;;;;;4972831;28;20420;-51
2022/06/07 10:07:49;;;;;;;6.50;6.00;;;22.90;91.10;;;;;;4969092;28;20436;-47
2022/06/07 10:10:34;;;;;;;6.13;5.73;;;22.80;91.80;;;;;;4984591;28;20470;-48
2022/06/07 10:13:32;;;;;;;5.90;5.50;;;22.80;91.90;;;;;;4969268;28;20440;-52
2022/06/07 10:16:00;;;;;;;6.20;5.70;;;22.80;91.40;;;;;;4979428;28;20804;-49
2022/06/07 10:18:30;;;;;;;6.23;5.83;;;22.70;91.30;;;;;;4970120;28;20431;-52
2022/06/07 10:21:21;;;;;;;5.60;5.20;;;22.50;91.80;;;;;;4972705;28;20500;-51
2022/06/07 10:24:22;;;;;;;4.77;4.37;;;22.40;90.20;;;;;;4976439;28;20948;-53
2022/06/07 10:27:02;;;;;;;5.20;4.70;;;22.30;86.40;;;;;;4974693;28;20458;-52
2022/06/07 10:29:46;;;;;;;5.17;4.70;;;22.40;86.80;;;;;;4979663;28;20537;-51
2022/06/07 10:32:21;;;;;;;4.80;4.50;;;22.50;86.10;;;;;;4970347;28;20439;-54
2022/06/07 10:35:19;;;;;;;4.40;4.10;;;22.70;84.10;;;;;;4971505;28;21231;-51
2022/06/07 10:37:57;;;;;;;4.67;4.37;;;22.90;85.30;;;;;;4972534;28;20432;-53
2022/06/07 10:40:31;;;;;;;4.57;4.17;;;23.20;83.30;;;;;;4970624;28;20427;-51
2022/06/07 10:43:10;;;;;;;4.60;4.30;;;23.40;81.20;;;;;;4972088;28;20406;-49
2022/06/07 10:45:39;;;;;;;4.80;4.50;;;23.60;81.10;;;;;;4971299;28;20432;-49
2022/06/07 10:48:14;;;;;;;4.47;4.20;;;23.70;81.00;;;;;;4971887;28;20412;-52
2022/06/07 10:52:20;;;;;;;4.80;4.40;;;23.80;80.60;;;;;;4963211;28;21239;-49
2022/06/07 10:53:56;;;;;;;4.47;4.07;;;23.70;79.50;;;;;;4983494;28;20451;-52
2022/06/07 10:56:32;;;;;;;4.63;4.33;;;23.50;80.10;;;;;;4976640;28;20566;-52
2022/06/07 10:59:01;;;;;;;4.77;4.47;;;23.50;81.20;;;;;;4970887;28;20419;-54
2022/06/07 11:01:38;;;;;;;4.60;4.30;;;23.70;79.90;;;;;;4971714;28;20912;-51
2022/06/07 11:09:19;;;;;;;4.63;4.33;;;23.60;80.00;;;;;;4971412;28;20428;-53
2022/06/07 11:10:01;;;;;;;5.40;5.00;;;23.80;78.50;;;;;;4968601;28;20798;-52
2022/06/07 11:12:35;;;;;;;4.17;3.97;;;24.00;79.10;;;;;;4964044;28;20421;-49
2022/06/07 11:15:18;;;;;;;5.00;4.60;;;24.10;77.80;;;;;;4971749;28;20424;-52
2022/06/07 11:17:52;;;;;;;4.53;4.33;;;24.10;77.50;;;;;;4966002;28;20993;-50
2022/06/07 11:20:24;;;;;;;5.80;4.50;;;24.00;73.70;;;;;;4958749;28;20838;-54
2022/06/07 11:23:23;;;;;;;4.40;4.17;;;24.10;74.30;;;;;;4972049;28;20522;-51
2022/06/07 11:25:59;;;;;;;4.30;4.10;;;23.90;72.70;;;;;;4961486;28;20424;-53
2022/06/07 11:28:30;;;;;;;4.33;4.13;;;23.80;68.70;;;;;;4970602;28;20462;-51
2022/06/07 11:31:21;;;;;;;4.47;4.27;;;23.60;69.70;;;;;;4968998;28;20522;-51
2022/06/07 11:33:53;;;;;;;4.20;3.87;;;23.70;72.20;;;;;;4957099;28;20512;-49
2022/06/07 11:36:24;;;;;;;4.37;4.10;;;23.70;75.40;;;;;;4974149;28;20419;-53
2022/06/07 11:38:58;;;;;;;3.80;3.57;;;23.80;73.60;;;;;;4961291;28;20413;-48
2022/06/07 11:41:38;;;;;;;4.17;3.93;;;23.90;72.90;;;;;;4971219;28;20423;-55
2022/06/07 11:44:24;;;;;;;4.50;4.20;;;23.90;69.00;;;;;;4971280;28;20420;-55
2022/06/07 11:46:49;;;;;;;5.00;3.93;;;23.70;69.00;;;;;;4970556;28;20429;-50
2022/06/07 11:49:22;;;;;;;4.37;4.17;;;23.60;70.70;;;;;;4953245;28;21006;-50
2022/06/07 11:51:50;;;;;;;4.67;4.47;;;23.60;70.20;;;;;;4970751;28;20286;-50
2022/06/07 11:54:19;;;;;;;4.30;4.00;;;23.70;71.20;;;;;;4960691;28;20902;-54
2022/06/07 11:56:48;;;;;;;4.77;4.50;;;23.80;69.80;;;;;;4968735;28;20472;-52
2022/06/07 11:59:16;;;;;;;4.37;4.17;;;24.00;70.20;;;;;;4970314;28;20440;-50
2022/06/07 12:02:21;;;;;;;4.67;4.37;;;24.10;74.60;;;;;;4970976;28;20424;-53
2022/06/07 12:04:47;;;;;;;4.70;4.40;;;24.20;70.20;;;;;;4970002;28;20870;-53
2022/06/07 12:07:15;;;;;;;6.90;6.40;;;24.40;69.00;;;;;;4970893;28;21185;-52
2022/06/07 12:09:47;;;;;;;5.63;5.13;;;24.30;69.50;;;;;;4961395;28;20492;-53
2022/06/07 12:12:23;;;;;;;6.40;5.90;;;24.30;69.50;;;;;;4970713;28;20491;-50
2022/06/07 12:14:58;;;;;;;5.03;4.73;;;24.10;71.40;;;;;;4968860;28;20559;-55
2022/06/07 12:17:29;;;;;;;4.93;4.63;;;24.20;71.20;;;;;;4985302;28;20434;-55
2022/06/07 12:19:54;;;;;;;8.40;7.57;;;24.10;71.90;;;;;;4963304;28;20435;-53
2022/06/07 12:22:23;;;;;;;5.77;5.37;;;24.20;72.00;;;;;;4971841;28;20928;-49
2022/06/07 12:24:53;;;;;;;4.73;4.50;;;24.30;71.20;;;;;;4976892;28;20180;-51
2022/06/07 12:27:26;;;;;;;6.73;6.23;;;24.10;69.10;;;;;;4970207;28;20560;-48
2022/06/07 12:29:54;;;;;;;5.40;4.37;;;24.00;71.10;;;;;;4962645;28;20517;-50
2022/06/07 12:32:27;;;;;;;5.77;5.40;;;24.10;73.30;;;;;;4969169;28;20895;-53
2022/06/07 12:35:18;;;;;;;5.63;5.00;;;24.10;72.40;;;;;;4974147;28;20863;-49
2022/06/07 12:37:56;;;;;;;9.97;9.20;;;24.00;71.30;;;;;;4990119;28;20755;-48
2022/06/07 12:40:50;;;;;;;4.97;4.67;;;23.90;71.40;;;;;;4980636;28;20436;-54
2022/06/07 12:43:28;;;;;;;7.10;6.60;;;24.00;69.30;;;;;;4971699;28;20423;-52
2022/06/07 12:46:17;;;;;;;8.03;7.43;;;24.10;68.30;;;;;;4972060;28;20447;-50
2022/06/07 12:48:43;;;;;;;4.83;4.53;;;24.00;68.00;;;;;;4980920;28;20428;-54
2022/06/07 12:51:34;;;;;;;5.57;5.27;;;24.00;67.10;;;;;;4965396;28;20460;-48
2022/06/07 12:54:22;;;;;;;5.83;4.83;;;24.10;68.30;;;;;;4960693;28;20592;-50
2022/06/07 12:56:49;;;;;;;4.87;4.57;;;24.30;71.00;;;;;;4966944;28;20502;-53
2022/06/07 12:59:41;;;;;;;5.00;4.50;;;24.50;71.90;;;;;;4970312;28;20767;-51
2022/06/07 13:02:24;;;;;;;4.93;4.63;;;24.70;72.00;;;;;;4975955;28;20527;-51
2022/06/07 13:04:55;;;;;;;5.13;4.80;;;25.10;66.20;;;;;;4974057;28;21064;-49
2022/06/07 13:07:42;;;;;;;5.73;5.33;;;25.20;63.70;;;;;;4972807;28;20861;-49
2022/06/07 13:10:15;;;;;;;5.10;4.80;;;25.10;65.20;;;;;;4973920;28;20440;-49
2022/06/07 13:12:45;;;;;;;4.93;4.73;;;25.00;65.20;;;;;;4960606;28;20427;-51
2022/06/07 13:15:35;;;;;;;5.07;4.77;;;24.90;64.80;;;;;;4966084;28;20844;-55
2022/06/07 13:18:28;;;;;;;4.57;4.37;;;25.10;61.10;;;;;;4973229;28;20456;-51
2022/06/07 13:21:24;;;;;;;5.20;4.80;;;25.20;59.80;;;;;;4974023;28;20471;-53
2022/06/07 13:23:55;;;;;;;5.40;5.07;;;25.30;62.10;;;;;;4971822;28;20451;-51
2022/06/07 13:26:25;;;;;;;10.70;9.90;;;25.10;63.90;;;;;;4973991;28;20425;-48